createdAt,value
2019-03-26T00:01:14.933Z,8.20
2019-03-26T00:03:45.770Z,8.20
2019-03-26T00:06:16.822Z,8.20
2019-03-26T00:08:47.944Z,8.20
2019-03-26T00:11:19.106Z,8.20
2019-03-26T00:13:49.972Z,8.40
2019-03-26T00:16:21.208Z,8.20
2019-03-26T00:18:52.086Z,8.40
2019-03-26T00:21:22.980Z,8.20
2019-03-26T00:23:53.868Z,8.30
2019-03-26T00:26:24.673Z,8.20
2019-03-26T00:28:55.455Z,8.10
2019-03-26T00:31:26.963Z,8.20
2019-03-26T00:33:57.738Z,8.50
2019-03-26T00:36:28.527Z,8.20
2019-03-26T00:38:59.401Z,8.50
2019-03-26T00:41:30.914Z,8.30
2019-03-26T00:44:02.099Z,8.00
2019-03-26T00:46:32.918Z,8.20
2019-03-26T00:49:03.729Z,8.00
2019-03-26T00:51:35.203Z,7.90
2019-03-26T00:54:05.951Z,7.90
2019-03-26T00:56:36.798Z,8.00
2019-03-26T00:59:07.647Z,8.20
2019-03-26T01:01:38.460Z,8.40
2019-03-26T01:04:10.033Z,8.10
2019-03-26T01:06:41.269Z,8.20
2019-03-26T01:09:12.196Z,8.20
2019-03-26T01:11:43.270Z,8.40
2019-03-26T01:14:14.070Z,8.00
2019-03-26T01:16:44.810Z,8.00
2019-03-26T01:19:16.060Z,7.90
2019-03-26T01:21:46.835Z,7.80
2019-03-26T01:24:18.354Z,7.90
2019-03-26T01:26:49.350Z,7.90
2019-03-26T01:29:20.476Z,7.60
2019-03-26T01:31:51.640Z,7.70
2019-03-26T01:34:22.748Z,7.90
2019-03-26T01:36:53.608Z,7.90
2019-03-26T01:39:24.418Z,7.90
2019-03-26T01:41:55.328Z,7.80
2019-03-26T01:44:26.617Z,7.90
2019-03-26T01:46:57.616Z,7.70
2019-03-26T01:49:28.420Z,7.60
2019-03-26T01:51:59.182Z,7.60
2019-03-26T01:54:29.993Z,7.70
2019-03-26T01:57:01.120Z,7.70
2019-03-26T01:59:31.985Z,7.60
2019-03-26T02:02:02.813Z,7.70
2019-03-26T02:04:34.050Z,7.60
2019-03-26T02:07:06.010Z,7.70
2019-03-26T02:09:36.832Z,7.80
2019-03-26T02:12:08.378Z,7.70
2019-03-26T02:14:39.218Z,7.80
2019-03-26T02:17:13.694Z,7.90
2019-03-26T02:19:44.871Z,7.70
2019-03-26T02:22:16.247Z,7.80
2019-03-26T02:24:47.075Z,7.90
2019-03-26T02:27:17.848Z,7.60
2019-03-26T02:29:48.640Z,7.50
2019-03-26T02:32:19.703Z,7.60
2019-03-26T02:34:50.998Z,7.50
2019-03-26T02:37:21.824Z,7.40
2019-03-26T02:39:52.906Z,7.60
2019-03-26T02:42:24.000Z,7.10
2019-03-26T02:44:54.759Z,7.10
2019-03-26T02:47:25.560Z,6.60
2019-03-26T02:49:56.298Z,6.80
2019-03-26T02:52:27.118Z,6.60
2019-03-26T02:54:57.946Z,6.50
2019-03-26T02:57:29.145Z,6.50
2019-03-26T03:00:00.536Z,6.30
2019-03-26T03:02:31.261Z,6.00
2019-03-26T03:05:02.296Z,6.00
2019-03-26T03:07:33.352Z,6.30
2019-03-26T03:10:04.508Z,6.00
2019-03-26T03:12:35.327Z,5.80
2019-03-26T03:15:06.565Z,5.90
2019-03-26T03:17:37.383Z,5.50
2019-03-26T03:20:08.521Z,5.80
2019-03-26T03:22:39.699Z,5.40
2019-03-26T03:25:10.906Z,5.40
2019-03-26T03:27:42.038Z,5.40
2019-03-26T03:30:13.545Z,5.30
2019-03-26T03:32:44.416Z,5.30
2019-03-26T03:35:15.331Z,5.20
2019-03-26T03:37:46.857Z,5.20
2019-03-26T03:40:19.381Z,5.40
2019-03-26T03:42:50.453Z,5.20
2019-03-26T03:45:29.243Z,5.10
2019-03-26T03:48:01.079Z,5.00
2019-03-26T03:50:33.148Z,5.00
2019-03-26T03:53:05.944Z,5.00
2019-03-26T03:55:37.495Z,4.90
2019-03-26T03:58:08.411Z,4.80
2019-03-26T04:00:42.302Z,4.80
2019-03-26T04:03:13.130Z,4.80
2019-03-26T04:05:43.933Z,4.70
2019-03-26T04:08:14.707Z,4.70
2019-03-26T04:10:45.502Z,4.80
2019-03-26T04:13:17.058Z,5.10
2019-03-26T04:15:48.049Z,5.00
2019-03-26T04:18:19.160Z,4.70
2019-03-26T04:20:49.897Z,4.50
2019-03-26T04:23:20.720Z,4.80
2019-03-26T04:25:51.481Z,4.50
2019-03-26T04:28:22.302Z,4.50
2019-03-26T04:30:53.034Z,4.40
2019-03-26T04:33:23.811Z,4.50
2019-03-26T04:35:55.127Z,4.50
2019-03-26T04:38:26.157Z,4.50
2019-03-26T04:40:57.551Z,4.60
2019-03-26T04:43:28.298Z,4.30
2019-03-26T04:45:59.128Z,4.70
2019-03-26T04:48:30.231Z,4.40
2019-03-26T04:51:01.421Z,4.60
2019-03-26T04:53:34.230Z,4.50
2019-03-26T04:56:04.519Z,4.50
2019-03-26T04:58:35.636Z,4.60
2019-03-26T05:01:06.443Z,4.70
2019-03-26T05:03:37.666Z,4.50
2019-03-26T05:06:08.419Z,4.60
2019-03-26T05:08:39.243Z,4.40
2019-03-26T05:11:10.029Z,4.70
2019-03-26T05:13:40.825Z,4.40
2019-03-26T05:16:11.586Z,4.70
2019-03-26T05:18:42.685Z,4.50
2019-03-26T05:21:13.458Z,4.40
2019-03-26T05:23:44.238Z,4.40
2019-03-26T05:26:15.353Z,4.60
2019-03-26T05:28:46.100Z,4.50
2019-03-26T05:31:17.160Z,4.50
2019-03-26T05:33:47.968Z,4.90
2019-03-26T05:36:18.738Z,4.90
2019-03-26T05:38:49.956Z,4.80
2019-03-26T05:41:20.740Z,4.70
2019-03-26T05:43:51.478Z,4.80
2019-03-26T05:46:22.327Z,4.70
2019-03-26T05:48:53.156Z,4.80
2019-03-26T05:51:24.060Z,4.70
2019-03-26T05:53:54.973Z,4.70
2019-03-26T05:56:25.728Z,4.70
2019-03-26T05:58:56.830Z,4.70
2019-03-26T06:01:27.685Z,4.80
2019-03-26T06:03:58.462Z,4.70
2019-03-26T06:06:29.530Z,4.70
2019-03-26T06:09:01.032Z,4.90
2019-03-26T06:11:31.848Z,4.90
2019-03-26T06:14:02.578Z,4.90
2019-03-26T06:16:38.495Z,5.10
2019-03-26T06:19:06.023Z,4.90
2019-03-26T06:21:37.309Z,5.00
2019-03-26T06:24:08.084Z,5.20
2019-03-26T06:26:38.893Z,4.90
2019-03-26T06:29:10.189Z,5.10
2019-03-26T06:31:41.033Z,4.90
2019-03-26T06:34:11.833Z,5.20
2019-03-26T06:36:43.309Z,5.20
2019-03-26T06:39:14.096Z,5.50
2019-03-26T06:41:44.883Z,5.40
2019-03-26T06:44:15.959Z,5.80
2019-03-26T06:46:47.118Z,5.80
2019-03-26T06:49:18.313Z,5.80
2019-03-26T06:51:49.389Z,5.90
2019-03-26T06:54:20.475Z,6.30
2019-03-26T06:56:51.276Z,6.50
2019-03-26T06:59:22.086Z,6.40
2019-03-26T07:01:53.669Z,6.80
2019-03-26T07:04:24.396Z,6.60
2019-03-26T07:06:57.742Z,7.00
2019-03-26T07:09:28.220Z,7.10
2019-03-26T07:11:59.433Z,7.10
2019-03-26T07:14:30.415Z,7.20
2019-03-26T07:17:01.553Z,7.00
2019-03-26T07:19:32.785Z,7.10
2019-03-26T07:22:03.553Z,7.10
2019-03-26T07:24:34.713Z,7.30
2019-03-26T07:27:05.481Z,7.60
2019-03-26T07:29:36.625Z,7.70
2019-03-26T07:32:07.394Z,7.90
2019-03-26T07:34:38.205Z,8.50
2019-03-26T07:37:09.029Z,8.70
2019-03-26T07:39:40.094Z,8.80
2019-03-26T07:42:10.858Z,9.10
2019-03-26T07:44:41.648Z,9.30
2019-03-26T07:47:12.720Z,9.20
2019-03-26T07:49:43.486Z,9.20
2019-03-26T07:52:15.700Z,9.10
2019-03-26T07:54:46.640Z,9.10
2019-03-26T07:57:18.365Z,9.40
2019-03-26T07:59:49.385Z,9.40
2019-03-26T08:02:20.190Z,9.40
2019-03-26T08:04:51.309Z,9.40
2019-03-26T08:07:22.120Z,9.60
2019-03-26T08:09:52.900Z,9.70
2019-03-26T08:12:24.030Z,9.70
2019-03-26T08:15:13.949Z,9.70
2019-03-26T08:17:45.494Z,9.50
2019-03-26T08:20:16.405Z,9.50
2019-03-26T08:22:47.880Z,9.50
2019-03-26T08:25:19.394Z,9.40
2019-03-26T08:27:50.460Z,9.60
2019-03-26T08:30:21.223Z,9.40
2019-03-26T08:32:52.057Z,9.60
2019-03-26T08:35:22.870Z,9.70
2019-03-26T08:37:53.658Z,9.50
2019-03-26T08:40:24.490Z,10.00
2019-03-26T08:42:55.242Z,9.80
2019-03-26T08:45:26.044Z,9.80
2019-03-26T08:47:56.917Z,9.90
2019-03-26T08:50:27.796Z,9.70
2019-03-26T08:52:58.848Z,9.60
2019-03-26T08:55:29.664Z,9.70
2019-03-26T08:58:00.698Z,9.50
2019-03-26T09:00:32.293Z,9.80
2019-03-26T09:03:03.235Z,10.00
2019-03-26T09:05:34.030Z,9.70
2019-03-26T09:08:04.913Z,10.00
2019-03-26T09:10:36.572Z,10.00
2019-03-26T09:13:07.691Z,10.20
2019-03-26T09:15:38.431Z,10.40
2019-03-26T09:18:09.240Z,10.60
2019-03-26T09:20:40.030Z,11.10
2019-03-26T09:23:12.293Z,11.10
2019-03-26T09:25:43.377Z,11.40
2019-03-26T09:28:14.185Z,11.20
2019-03-26T09:30:44.997Z,11.00
2019-03-26T09:33:15.710Z,11.30
2019-03-26T09:35:46.497Z,11.30
2019-03-26T09:38:17.625Z,11.80
2019-03-26T09:40:49.359Z,12.10
2019-03-26T09:43:20.153Z,12.50
2019-03-26T09:45:50.965Z,12.60
2019-03-26T09:48:21.757Z,12.70
2019-03-26T09:50:53.383Z,12.80
2019-03-26T09:53:24.477Z,12.70
2019-03-26T09:55:55.314Z,12.70
2019-03-26T09:58:26.474Z,12.60
2019-03-26T10:00:57.278Z,12.10
2019-03-26T10:03:28.810Z,12.10
2019-03-26T10:05:59.599Z,11.60
2019-03-26T10:08:30.467Z,11.70
2019-03-26T10:11:01.325Z,11.50
2019-03-26T10:13:32.575Z,11.40
2019-03-26T10:16:03.387Z,11.30
2019-03-26T10:18:34.197Z,11.50
2019-03-26T10:21:05.717Z,11.30
2019-03-26T10:23:36.493Z,11.10
2019-03-26T10:26:07.289Z,11.00
2019-03-26T10:28:38.069Z,11.10
2019-03-26T10:31:09.486Z,11.10
2019-03-26T10:33:40.945Z,11.10
2019-03-26T10:36:12.092Z,11.50
2019-03-26T10:38:43.277Z,11.80
2019-03-26T10:41:14.160Z,12.20
2019-03-26T10:43:44.994Z,12.00
2019-03-26T10:46:15.894Z,12.20
2019-03-26T10:48:46.701Z,12.40
2019-03-26T10:51:17.851Z,12.40
2019-03-26T10:53:48.686Z,12.60
2019-03-26T10:56:19.493Z,12.60
2019-03-26T10:58:50.206Z,12.40
2019-03-26T11:01:21.946Z,12.40
2019-03-26T11:03:52.751Z,12.80
2019-03-26T11:06:23.571Z,13.20
2019-03-26T11:08:54.764Z,13.10
2019-03-26T11:11:25.486Z,13.10
2019-03-26T11:13:58.769Z,13.10
2019-03-26T11:16:28.986Z,13.10
2019-03-26T11:19:00.159Z,13.20
2019-03-26T11:21:31.931Z,13.30
2019-03-26T11:24:02.756Z,13.10
2019-03-26T11:26:33.566Z,13.10
2019-03-26T11:29:05.038Z,13.10
2019-03-26T11:31:36.543Z,13.40
2019-03-26T11:34:07.339Z,13.20
2019-03-26T11:36:38.678Z,13.10
2019-03-26T11:39:10.418Z,12.70
2019-03-26T11:41:41.220Z,12.70
2019-03-26T11:44:12.322Z,12.70
2019-03-26T11:46:43.135Z,12.90
2019-03-26T11:49:13.918Z,12.90
2019-03-26T11:51:45.049Z,13.00
2019-03-26T11:54:15.861Z,13.30
2019-03-26T11:56:46.884Z,13.40
2019-03-26T11:59:18.003Z,13.20
2019-03-26T12:01:52.188Z,12.50
2019-03-26T12:04:21.622Z,11.90
2019-03-26T12:06:52.289Z,11.70
2019-03-26T12:09:23.010Z,11.50
2019-03-26T12:11:54.107Z,11.60
2019-03-26T12:14:24.949Z,11.80
2019-03-26T12:16:55.712Z,11.90
2019-03-26T12:19:26.809Z,12.10
2019-03-26T12:21:57.670Z,12.30
2019-03-26T12:24:28.825Z,12.50
2019-03-26T12:27:00.060Z,12.70
2019-03-26T12:29:31.235Z,12.80
2019-03-26T12:32:02.080Z,12.70
2019-03-26T12:34:33.215Z,12.70
2019-03-26T12:37:04.084Z,12.40
2019-03-26T12:39:34.907Z,12.50
2019-03-26T12:42:06.164Z,12.30
2019-03-26T12:44:37.067Z,12.00
2019-03-26T12:47:08.131Z,11.90
2019-03-26T12:49:38.917Z,11.80
2019-03-26T12:52:10.016Z,12.10
2019-03-26T12:54:40.831Z,12.60
2019-03-26T12:57:13.880Z,12.70
2019-03-26T12:59:44.024Z,12.80
2019-03-26T13:02:14.838Z,12.80
2019-03-26T13:04:45.590Z,12.70
2019-03-26T13:07:16.377Z,12.70
2019-03-26T13:09:47.140Z,12.60
2019-03-26T13:12:17.919Z,12.70
2019-03-26T13:14:49.670Z,12.60
2019-03-26T13:17:20.428Z,12.60
2019-03-26T13:19:51.239Z,12.40
2019-03-26T13:22:22.123Z,12.40
2019-03-26T13:24:52.912Z,12.40
2019-03-26T13:27:23.763Z,12.20
2019-03-26T13:29:54.571Z,12.40
2019-03-26T13:32:25.354Z,12.60
2019-03-26T13:34:56.132Z,12.60
2019-03-26T13:37:26.932Z,12.90
2019-03-26T13:39:57.617Z,12.90
2019-03-26T13:42:28.424Z,13.00
2019-03-26T13:44:59.469Z,13.20
2019-03-26T13:47:30.323Z,13.40
2019-03-26T13:50:01.150Z,13.30
2019-03-26T13:52:32.267Z,13.10
2019-03-26T13:55:03.113Z,12.90
2019-03-26T13:57:34.336Z,13.10
2019-03-26T14:00:05.829Z,12.90
2019-03-26T14:02:37.031Z,13.00
2019-03-26T14:05:13.473Z,13.10
2019-03-26T14:07:44.609Z,13.10
2019-03-26T14:10:15.536Z,12.80
2019-03-26T14:12:46.279Z,12.40
2019-03-26T14:15:17.754Z,12.10
2019-03-26T14:17:48.499Z,12.00
2019-03-26T14:20:19.751Z,12.00
2019-03-26T14:22:50.557Z,11.90
2019-03-26T14:25:21.729Z,11.90
2019-03-26T14:27:52.815Z,11.90
2019-03-26T14:30:36.807Z,11.90
2019-03-26T14:33:08.279Z,11.90
2019-03-26T14:35:39.031Z,11.60
2019-03-26T14:38:10.234Z,11.40
2019-03-26T14:40:53.575Z,11.20
2019-03-26T14:43:13.557Z,11.10
2019-03-26T14:45:44.758Z,11.40
2019-03-26T14:48:15.617Z,11.30
2019-03-26T14:50:46.310Z,11.30
2019-03-26T14:53:17.441Z,11.20
2019-03-26T14:55:48.248Z,11.20
2019-03-26T14:58:19.758Z,11.30
2019-03-26T15:00:50.586Z,11.40
2019-03-26T15:03:21.716Z,11.40
2019-03-26T15:05:52.506Z,11.40
2019-03-26T15:08:23.380Z,11.30
2019-03-26T15:11:07.277Z,11.30
2019-03-26T15:13:26.541Z,11.30
2019-03-26T15:15:57.750Z,11.30
2019-03-26T15:18:28.913Z,11.30
2019-03-26T15:21:00.122Z,11.20
2019-03-26T15:23:30.907Z,11.40
2019-03-26T15:26:01.700Z,11.30
2019-03-26T15:28:32.479Z,11.20
2019-03-26T15:31:03.653Z,11.20
2019-03-26T15:33:34.460Z,11.10
2019-03-26T15:36:05.248Z,11.10
2019-03-26T15:38:36.355Z,10.90
2019-03-26T15:41:20.703Z,10.80
2019-03-26T15:43:39.878Z,10.90
2019-03-26T15:46:11.120Z,11.00
2019-03-26T15:48:42.737Z,10.70
2019-03-26T15:51:13.487Z,10.60
2019-03-26T15:53:44.316Z,10.30
2019-03-26T15:56:15.110Z,10.40
2019-03-26T15:58:45.888Z,10.60
2019-03-26T16:01:16.628Z,10.10
2019-03-26T16:03:47.846Z,10.20
2019-03-26T16:06:18.693Z,10.30
2019-03-26T16:08:50.067Z,10.10
2019-03-26T16:11:34.750Z,10.00
2019-03-26T16:13:53.623Z,10.00
2019-03-26T16:16:24.457Z,10.20
2019-03-26T16:18:55.275Z,10.10
2019-03-26T16:21:26.144Z,9.90
2019-03-26T16:23:57.177Z,10.30
2019-03-26T16:26:27.989Z,10.00
2019-03-26T16:28:59.172Z,10.00
2019-03-26T16:31:30.003Z,9.70
2019-03-26T16:34:03.104Z,9.70
2019-03-26T16:36:33.889Z,9.80
2019-03-26T16:39:06.593Z,10.00
2019-03-26T16:41:48.444Z,10.10
2019-03-26T16:44:09.879Z,9.80
2019-03-26T16:46:40.588Z,10.00
2019-03-26T16:49:22.387Z,9.90
2019-03-26T16:51:53.537Z,9.80
2019-03-26T16:54:24.322Z,9.80
2019-03-26T16:56:55.052Z,9.70
2019-03-26T16:59:25.807Z,9.80
2019-03-26T17:01:56.582Z,9.80
2019-03-26T17:04:27.378Z,9.50
2019-03-26T17:06:58.870Z,9.50
2019-03-26T17:09:29.968Z,9.50
2019-03-26T17:12:03.567Z,9.50
2019-03-26T17:14:33.265Z,9.50
2019-03-26T17:17:04.112Z,9.50
2019-03-26T17:19:34.916Z,9.40
2019-03-26T17:22:05.770Z,9.10
2019-03-26T17:24:36.867Z,9.20
2019-03-26T17:27:08.026Z,9.10
2019-03-26T17:29:38.825Z,9.30
2019-03-26T17:32:09.596Z,9.10
2019-03-26T17:34:40.347Z,8.90
2019-03-26T17:37:11.495Z,8.80
2019-03-26T17:39:42.365Z,8.70
2019-03-26T17:42:17.365Z,8.60
2019-03-26T17:44:45.874Z,8.60
2019-03-26T17:47:17.018Z,8.40
2019-03-26T17:49:47.831Z,8.50
2019-03-26T17:52:18.551Z,8.40
2019-03-26T17:54:50.143Z,8.50
2019-03-26T17:57:21.315Z,8.60
2019-03-26T17:59:52.041Z,8.50
2019-03-26T18:02:23.362Z,8.60
2019-03-26T18:05:00.732Z,8.80
2019-03-26T18:07:31.519Z,8.90
2019-03-26T18:10:02.643Z,8.80
2019-03-26T18:12:33.451Z,8.70
2019-03-26T18:15:04.744Z,8.40
2019-03-26T18:17:35.854Z,8.40
2019-03-26T18:20:07.117Z,8.40
2019-03-26T18:22:37.836Z,8.40
2019-03-26T18:25:08.917Z,8.40
2019-03-26T18:27:40.636Z,8.50
2019-03-26T18:30:11.909Z,8.60
2019-03-26T18:32:42.725Z,8.70
2019-03-26T18:35:14.230Z,8.50
2019-03-26T18:37:45.729Z,8.40
2019-03-26T18:40:16.721Z,8.50
2019-03-26T18:42:47.818Z,8.60
2019-03-26T18:45:18.970Z,8.70
2019-03-26T18:47:50.170Z,8.50
2019-03-26T18:50:22.204Z,8.60
2019-03-26T18:52:53.147Z,8.60
2019-03-26T18:55:25.316Z,8.60
2019-03-26T18:58:05.356Z,8.50
2019-03-26T19:00:42.540Z,8.80
2019-03-26T19:03:19.606Z,8.80
2019-03-26T19:05:56.982Z,8.60
2019-03-26T19:08:28.653Z,8.50
2019-03-26T19:10:59.477Z,8.80
2019-03-26T19:13:30.300Z,8.60
2019-03-26T19:16:01.167Z,8.50
2019-03-26T19:18:32.002Z,8.60
2019-03-26T19:21:02.977Z,8.60
2019-03-26T19:23:34.100Z,8.60
2019-03-26T19:26:04.900Z,8.60
2019-03-26T19:28:36.376Z,8.40
2019-03-26T19:31:07.620Z,8.50
2019-03-26T19:33:39.404Z,8.40
2019-03-26T19:36:10.207Z,8.40
2019-03-26T19:38:41.384Z,8.50
2019-03-26T19:41:12.610Z,8.50
2019-03-26T19:43:43.746Z,8.50
2019-03-26T19:46:14.964Z,8.40
2019-03-26T19:48:45.912Z,8.50
2019-03-26T19:51:16.750Z,8.40
2019-03-26T19:53:47.961Z,8.50
2019-03-26T19:56:18.761Z,8.50
2019-03-26T19:58:49.916Z,8.60
2019-03-26T20:01:20.770Z,8.50
2019-03-26T20:03:51.685Z,8.60
2019-03-26T20:06:22.949Z,8.50
2019-03-26T20:08:53.756Z,8.30
2019-03-26T20:11:24.727Z,8.50
2019-03-26T20:13:55.794Z,8.50
2019-03-26T20:16:27.483Z,8.60
2019-03-26T20:18:59.036Z,8.50
2019-03-26T20:21:29.881Z,8.50
2019-03-26T20:24:01.548Z,8.40
2019-03-26T20:26:32.423Z,8.40
2019-03-26T20:29:03.231Z,8.50
2019-03-26T20:31:34.684Z,8.60
2019-03-26T20:34:05.583Z,8.50
2019-03-26T20:36:36.404Z,8.30
2019-03-26T20:39:08.146Z,8.50
2019-03-26T20:41:39.163Z,8.30
2019-03-26T20:44:09.907Z,8.60
2019-03-26T20:46:40.755Z,8.50
2019-03-26T20:49:11.598Z,8.60
2019-03-26T20:51:42.443Z,8.60
2019-03-26T20:54:13.262Z,8.60
2019-03-26T20:56:44.157Z,8.60
2019-03-26T20:59:15.503Z,8.40
2019-03-26T21:01:46.502Z,8.40
2019-03-26T21:04:17.362Z,8.60
2019-03-26T21:06:48.233Z,8.20
2019-03-26T21:09:19.068Z,8.30
2019-03-26T21:11:49.874Z,8.20
2019-03-26T21:14:20.737Z,8.20
2019-03-26T21:16:51.531Z,8.20
2019-03-26T21:19:22.363Z,8.30
2019-03-26T21:21:53.284Z,8.10
2019-03-26T21:24:24.395Z,8.10
2019-03-26T21:26:55.312Z,8.20
2019-03-26T21:29:26.583Z,8.20
2019-03-26T21:31:57.748Z,8.20
2019-03-26T21:34:30.572Z,8.20
2019-03-26T21:37:01.049Z,8.10
2019-03-26T21:39:31.877Z,8.20
2019-03-26T21:42:02.682Z,8.20
2019-03-26T21:44:33.465Z,8.30
2019-03-26T21:47:04.261Z,8.30
2019-03-26T21:49:35.724Z,8.40
2019-03-26T21:52:06.573Z,8.20
2019-03-26T21:54:37.394Z,8.20
2019-03-26T21:57:08.544Z,8.20
2019-03-26T21:59:39.333Z,8.20
2019-03-26T22:02:10.158Z,8.20
2019-03-26T22:04:41.403Z,8.30
2019-03-26T22:07:12.281Z,8.30
2019-03-26T22:09:43.742Z,8.20
2019-03-26T22:12:15.894Z,8.20
2019-03-26T22:14:46.708Z,8.30
2019-03-26T22:17:17.531Z,8.30
2019-03-26T22:19:48.301Z,8.40
2019-03-26T22:22:19.083Z,8.50
2019-03-26T22:24:49.985Z,8.60
2019-03-26T22:27:20.797Z,8.50
2019-03-26T22:29:51.625Z,8.30
2019-03-26T22:32:22.725Z,8.20
2019-03-26T22:34:54.000Z,8.20
2019-03-26T22:37:25.088Z,8.20
2019-03-26T22:39:55.929Z,8.30
2019-03-26T22:42:26.694Z,8.30
2019-03-26T22:44:57.533Z,8.10
2019-03-26T22:47:28.740Z,7.90
2019-03-26T22:49:59.855Z,8.30
2019-03-26T22:52:30.675Z,8.20
2019-03-26T22:55:01.458Z,8.20
2019-03-26T22:57:32.309Z,8.30
2019-03-26T23:00:03.591Z,8.20
2019-03-26T23:02:34.429Z,8.20
2019-03-26T23:05:06.024Z,8.30
2019-03-26T23:07:36.921Z,8.60
2019-03-26T23:10:08.699Z,8.40
2019-03-26T23:12:39.509Z,8.20
2019-03-26T23:15:22.112Z,8.30
2019-03-26T23:17:53.565Z,8.20
2019-03-26T23:20:25.246Z,8.20
2019-03-26T23:22:57.628Z,8.10
2019-03-26T23:25:28.464Z,8.00
2019-03-26T23:27:59.346Z,8.00
2019-03-26T23:30:30.186Z,7.90
2019-03-26T23:33:00.963Z,8.00
2019-03-26T23:35:32.184Z,8.00
2019-03-26T23:38:03.073Z,8.00
2019-03-26T23:40:34.099Z,8.00
2019-03-26T23:43:04.880Z,7.90
2019-03-26T23:45:36.177Z,8.00
2019-03-26T23:48:07.338Z,7.90
2019-03-26T23:50:38.108Z,8.00
2019-03-26T23:53:08.894Z,8.00
2019-03-26T23:55:39.731Z,7.90
2019-03-26T23:58:10.510Z,8.10
